Time;durP1;ratioP1;P1;durP2;ratioP2;P2;SDS_P1;SDS_P2;PMS_P1;PMS_P2;Temp;Humidity;BMP_temperature;BMP_pressure;BME280_temperature;BME280_humidity;BME280_pressure;Samples;Min_cycle;Max_cycle;Signal;HPM_P1;HPM_P2
2023/01/20 00:01:19;;;;;;;36.78;20.15;;;;;;;;;;5030329;28;20033;-84
2023/01/20 00:03:45;;;;;;;35.20;19.30;;;;;;;;;;5029665;28;20036;-84
2023/01/20 00:06:10;;;;;;;39.78;19.55;;;;;;;;;;5032094;28;20037;-83
2023/01/20 00:08:36;;;;;;;38.03;20.00;;;;;;;;;;5014086;28;20033;-83
2023/01/20 00:11:05;;;;;;;41.72;19.92;;;;;;;;;;5030419;28;20440;-83
2023/01/20 00:13:31;;;;;;;34.67;18.80;;;;;;;;;;5041709;28;20049;-84
2023/01/20 00:15:57;;;;;;;34.58;18.48;;;;;;;;;;5030645;28;20088;-83
2023/01/20 00:18:22;;;;;;;36.40;19.52;;;;;;;;;;5025627;28;20033;-84
2023/01/20 00:20:48;;;;;;;35.50;19.83;;;;;;;;;;5039188;28;20033;-83
2023/01/20 00:23:13;;;;;;;34.08;19.20;;;;;;;;;;5019718;28;20040;-82
2023/01/20 00:25:39;;;;;;;40.63;20.67;;;;;;;;;;5028010;28;20026;-84
2023/01/20 00:28:04;;;;;;;35.08;18.85;;;;;;;;;;5031272;28;20025;-83
2023/01/20 00:30:29;;;;;;;36.20;19.55;;;;;;;;;;5029617;28;20120;-85
2023/01/20 00:32:55;;;;;;;39.95;19.23;;;;;;;;;;5031757;28;20432;-85
2023/01/20 00:35:20;;;;;;;38.55;20.10;;;;;;;;;;5016362;28;20373;-85
2023/01/20 00:37:46;;;;;;;33.83;18.98;;;;;;;;;;5039241;28;20465;-84
2023/01/20 00:40:11;;;;;;;38.08;19.77;;;;;;;;;;5030805;28;20508;-84
2023/01/20 00:42:37;;;;;;;36.10;18.98;;;;;;;;;;5017841;28;20041;-85
2023/01/20 00:45:02;;;;;;;35.17;18.95;;;;;;;;;;5036104;28;20040;-84
2023/01/20 00:47:28;;;;;;;39.20;19.90;;;;;;;;;;5046978;28;20029;-84
2023/01/20 00:49:53;;;;;;;33.53;18.67;;;;;;;;;;5046874;28;20037;-84
2023/01/20 00:52:19;;;;;;;34.55;18.52;;;;;;;;;;5033991;28;20044;-83
2023/01/20 00:54:44;;;;;;;35.92;18.10;;;;;;;;;;5035417;28;20048;-84
2023/01/20 00:57:10;;;;;;;30.45;17.05;;;;;;;;;;5034338;28;20025;-84
2023/01/20 00:59:35;;;;;;;31.77;17.73;;;;;;;;;;5039717;28;20552;-84
2023/01/20 01:02:00;;;;;;;37.13;18.27;;;;;;;;;;5034672;28;20044;-84
2023/01/20 01:04:26;;;;;;;33.65;18.67;;;;;;;;;;5034987;28;20029;-85
2023/01/20 01:06:51;;;;;;;31.83;17.83;;;;;;;;;;5034673;28;20091;-84
2023/01/20 01:09:17;;;;;;;32.55;17.83;;;;;;;;;;5035058;28;20033;-84
2023/01/20 01:11:42;;;;;;;37.72;18.63;;;;;;;;;;5033540;28;20034;-84
2023/01/20 01:14:08;;;;;;;33.03;17.48;;;;;;;;;;5035150;28;20136;-83
2023/01/20 01:16:33;;;;;;;32.58;17.70;;;;;;;;;;5034741;28;20057;-84
2023/01/20 01:18:59;;;;;;;35.70;18.38;;;;;;;;;;5050579;28;20144;-84
2023/01/20 01:21:24;;;;;;;31.02;17.00;;;;;;;;;;5049891;28;20412;-83
2023/01/20 01:23:51;;;;;;;30.65;17.80;;;;;;;;;;5033763;28;20128;-84
2023/01/20 01:26:16;;;;;;;32.05;17.05;;;;;;;;;;5050400;28;20029;-85
2023/01/20 01:28:42;;;;;;;33.58;17.95;;;;;;;;;;5033469;28;20037;-84
2023/01/20 01:31:07;;;;;;;32.45;18.40;;;;;;;;;;5033746;28;20045;-83
2023/01/20 01:33:33;;;;;;;32.28;17.90;;;;;;;;;;5036454;28;20029;-84
2023/01/20 01:35:59;;;;;;;32.08;17.15;;;;;;;;;;5040427;28;20033;-83
2023/01/20 01:38:25;;;;;;;36.92;16.67;;;;;;;;;;5030274;28;20045;-83
2023/01/20 01:40:50;;;;;;;31.58;16.83;;;;;;;;;;5033915;28;20029;-83
2023/01/20 01:43:23;;;;;;;28.70;16.60;;;;;;;;;;5016340;28;20049;-83
2023/01/20 01:45:48;;;;;;;31.20;17.92;;;;;;;;;;5042742;28;20492;-83
2023/01/20 01:48:13;;;;;;;31.05;17.15;;;;;;;;;;5035503;28;20037;-84
2023/01/20 01:51:05;;;;;;;30.83;17.42;;;;;;;;;;5039087;28;20033;-82
2023/01/20 01:53:32;;;;;;;34.25;18.00;;;;;;;;;;5032031;28;20468;-84
2023/01/20 01:55:58;;;;;;;32.45;17.38;;;;;;;;;;5032944;28;20021;-83
2023/01/20 01:58:23;;;;;;;;;;;;;;;;;;5034612;28;20030;-83
2023/01/20 02:00:49;;;;;;;29.55;16.58;;;;;;;;;;5032828;28;19959;-84
2023/01/20 02:03:14;;;;;;;28.63;16.60;;;;;;;;;;5049250;28;20044;-83
2023/01/20 02:05:39;;;;;;;35.03;17.48;;;;;;;;;;5032420;28;20457;-84
2023/01/20 02:08:06;;;;;;;27.30;16.13;;;;;;;;;;5033935;28;20124;-84
2023/01/20 02:10:31;;;;;;;;;;;;;;;;;;5039668;28;20021;-83
2023/01/20 02:12:56;;;;;;;28.92;16.25;;;;;;;;;;5032134;28;20004;-84
2023/01/20 02:15:26;;;;;;;30.15;17.08;;;;;;;;;;5038339;28;20037;-84
2023/01/20 02:18:10;;;;;;;28.83;16.38;;;;;;;;;;5033361;28;20045;-84
2023/01/20 02:20:56;;;;;;;30.13;17.15;;;;;;;;;;5025530;28;20033;-83
2023/01/20 02:23:31;;;;;;;29.08;15.70;;;;;;;;;;5044108;28;20420;-83
2023/01/20 02:26:11;;;;;;;30.88;16.13;;;;;;;;;;5015575;28;20040;-83
2023/01/20 02:28:43;;;;;;;25.70;15.93;;;;;;;;;;5032512;28;20552;-84
2023/01/20 02:31:17;;;;;;;30.30;16.83;;;;;;;;;;5036777;28;20140;-83
2023/01/20 02:33:45;;;;;;;32.13;17.25;;;;;;;;;;5032725;28;20033;-83
2023/01/20 02:36:11;;;;;;;29.67;17.38;;;;;;;;;;5013781;28;20036;-82
2023/01/20 02:38:40;;;;;;;30.10;16.58;;;;;;;;;;5021552;28;20042;-83
2023/01/20 02:41:07;;;;;;;31.33;16.52;;;;;;;;;;5032766;28;20026;-84
2023/01/20 02:43:37;;;;;;;30.30;16.55;;;;;;;;;;5031873;28;20053;-82
2023/01/20 02:46:09;;;;;;;29.55;17.05;;;;;;;;;;5015073;28;20038;-83
2023/01/20 02:48:41;;;;;;;30.63;16.33;;;;;;;;;;5032995;28;20431;-82
2023/01/20 02:51:33;;;;;;;28.90;16.67;;;;;;;;;;5024491;28;20058;-83
2023/01/20 02:54:03;;;;;;;29.50;15.85;;;;;;;;;;5029357;28;20448;-84
2023/01/20 02:56:28;;;;;;;27.08;15.55;;;;;;;;;;5032189;28;20034;-84
2023/01/20 02:58:56;;;;;;;32.22;16.63;;;;;;;;;;5032787;28;20040;-82
2023/01/20 03:01:27;;;;;;;28.67;15.75;;;;;;;;;;5039809;28;20117;-83
2023/01/20 03:03:53;;;;;;;27.35;15.48;;;;;;;;;;5031913;28;20080;-83
2023/01/20 03:06:20;;;;;;;31.42;15.93;;;;;;;;;;5031188;28;20030;-83
2023/01/20 03:08:45;;;;;;;31.02;16.60;;;;;;;;;;5031540;28;20479;-83
2023/01/20 03:11:11;;;;;;;30.65;16.48;;;;;;;;;;5031616;28;20056;-83
2023/01/20 03:13:38;;;;;;;26.42;15.60;;;;;;;;;;5031172;28;20148;-85
2023/01/20 03:16:08;;;;;;;30.45;16.33;;;;;;;;;;5031508;28;20021;-83
2023/01/20 03:18:34;;;;;;;32.53;16.10;;;;;;;;;;5038089;28;20044;-83
2023/01/20 03:21:00;;;;;;;28.85;16.55;;;;;;;;;;5030263;28;20021;-84
2023/01/20 03:23:25;;;;;;;29.33;16.40;;;;;;;;;;5019874;28;20034;-83
2023/01/20 03:25:51;;;;;;;29.05;16.65;;;;;;;;;;5032404;28;20040;-84
2023/01/20 03:28:16;;;;;;;29.75;16.17;;;;;;;;;;5031649;28;20384;-84
2023/01/20 03:30:42;;;;;;;29.80;16.25;;;;;;;;;;5034871;28;20040;-83
2023/01/20 03:33:07;;;;;;;27.45;15.65;;;;;;;;;;5032466;28;20033;-83
2023/01/20 03:35:33;;;;;;;28.23;15.77;;;;;;;;;;5032668;28;20153;-85
2023/01/20 03:37:58;;;;;;;27.15;15.85;;;;;;;;;;5030733;28;20029;-85
2023/01/20 03:40:24;;;;;;;28.88;15.65;;;;;;;;;;5032098;28;20041;-83
2023/01/20 03:42:56;;;;;;;28.33;15.60;;;;;;;;;;5031272;28;20041;-83
2023/01/20 03:45:38;;;;;;;28.90;15.95;;;;;;;;;;5032862;28;20045;-83
2023/01/20 03:48:13;;;;;;;31.33;16.35;;;;;;;;;;5017785;28;20032;-83
2023/01/20 03:50:41;;;;;;;26.80;15.20;;;;;;;;;;5029473;28;20044;-83
2023/01/20 03:53:09;;;;;;;28.83;16.70;;;;;;;;;;5031836;28;20060;-84
2023/01/20 03:55:37;;;;;;;31.63;16.23;;;;;;;;;;5031476;28;20032;-84
2023/01/20 03:58:13;;;;;;;30.25;16.05;;;;;;;;;;5029799;28;20040;-83
2023/01/20 04:00:39;;;;;;;31.48;14.90;;;;;;;;;;5031013;28;20432;-85
2023/01/20 04:03:06;;;;;;;31.65;16.92;;;;;;;;;;5032477;28;20036;-84
2023/01/20 04:05:31;;;;;;;29.58;17.15;;;;;;;;;;5030815;28;20038;-84
2023/01/20 04:07:58;;;;;;;28.23;15.93;;;;;;;;;;5031049;28;20040;-85
2023/01/20 04:10:24;;;;;;;31.20;16.55;;;;;;;;;;5013221;28;20034;-83
2023/01/20 04:12:49;;;;;;;27.50;15.25;;;;;;;;;;5032083;28;20049;-83
2023/01/20 04:15:15;;;;;;;28.73;15.90;;;;;;;;;;5031643;28;20038;-84
2023/01/20 04:17:40;;;;;;;28.85;15.00;;;;;;;;;;5030776;28;20120;-84
2023/01/20 04:20:07;;;;;;;29.77;16.35;;;;;;;;;;5030599;28;20510;-85
2023/01/20 04:22:33;;;;;;;32.03;16.40;;;;;;;;;;5027632;28;20037;-84
2023/01/20 04:25:00;;;;;;;26.15;14.85;;;;;;;;;;5030812;28;20550;-84
2023/01/20 04:27:26;;;;;;;27.20;15.57;;;;;;;;;;5031504;28;20021;-84
2023/01/20 04:29:51;;;;;;;28.77;16.08;;;;;;;;;;5030251;28;20459;-84
2023/01/20 04:32:16;;;;;;;29.10;16.05;;;;;;;;;;5027733;28;20075;-84
2023/01/20 04:34:42;;;;;;;27.85;14.85;;;;;;;;;;5029416;28;20484;-84
2023/01/20 04:37:07;;;;;;;27.20;15.20;;;;;;;;;;5031380;28;20160;-83
2023/01/20 04:39:33;;;;;;;29.25;15.73;;;;;;;;;;5021545;28;20096;-85
2023/01/20 04:41:59;;;;;;;30.30;15.90;;;;;;;;;;5031369;28;20033;-85
2023/01/20 04:44:24;;;;;;;35.38;15.55;;;;;;;;;;5013709;28;20037;-85
2023/01/20 04:46:50;;;;;;;25.92;14.95;;;;;;;;;;5031134;28;20179;-85
2023/01/20 04:49:15;;;;;;;33.70;17.55;;;;;;;;;;5030642;28;20037;-84
2023/01/20 04:51:41;;;;;;;29.05;16.55;;;;;;;;;;5030108;28;20063;-83
2023/01/20 04:54:06;;;;;;;31.38;16.60;;;;;;;;;;5031396;28;20072;-85
2023/01/20 04:56:31;;;;;;;29.85;15.88;;;;;;;;;;5031884;28;20034;-84
2023/01/20 04:58:57;;;;;;;34.33;16.45;;;;;;;;;;5032970;28;20055;-84
2023/01/20 05:01:22;;;;;;;29.17;15.48;;;;;;;;;;5031458;28;20045;-83
2023/01/20 05:03:48;;;;;;;30.63;16.63;;;;;;;;;;5028510;28;20116;-85
2023/01/20 05:06:14;;;;;;;29.77;16.10;;;;;;;;;;5036202;28;20087;-83
2023/01/20 05:08:39;;;;;;;28.90;16.35;;;;;;;;;;5030698;28;20120;-85
2023/01/20 05:11:05;;;;;;;31.10;16.90;;;;;;;;;;5034596;28;20137;-83
2023/01/20 05:13:30;;;;;;;32.35;16.77;;;;;;;;;;5045396;28;20107;-81
2023/01/20 05:15:56;;;;;;;29.98;16.13;;;;;;;;;;5029179;28;20037;-85
2023/01/20 05:18:21;;;;;;;31.52;16.45;;;;;;;;;;5029151;28;20574;-83
2023/01/20 05:20:47;;;;;;;27.83;16.13;;;;;;;;;;5030286;28;20026;-84
2023/01/20 05:23:13;;;;;;;28.20;16.13;;;;;;;;;;5029426;28;20561;-83
2023/01/20 05:25:38;;;;;;;33.47;16.83;;;;;;;;;;5031114;28;20397;-84
2023/01/20 05:28:04;;;;;;;28.40;15.68;;;;;;;;;;5028795;28;20891;-85
2023/01/20 05:30:29;;;;;;;30.42;16.58;;;;;;;;;;5033416;28;20056;-84
2023/01/20 05:32:54;;;;;;;31.35;17.15;;;;;;;;;;5034011;28;20429;-83
2023/01/20 05:35:20;;;;;;;34.30;17.10;;;;;;;;;;5034213;28;20029;-83
2023/01/20 05:37:45;;;;;;;29.77;16.13;;;;;;;;;;5032804;28;20407;-84
2023/01/20 05:40:11;;;;;;;36.40;17.58;;;;;;;;;;5038113;28;20498;-83
2023/01/20 05:42:36;;;;;;;34.97;18.58;;;;;;;;;;5037595;28;20136;-83
2023/01/20 05:45:02;;;;;;;36.47;17.63;;;;;;;;;;5048794;28;20125;-83
2023/01/20 05:47:28;;;;;;;33.28;18.08;;;;;;;;;;5033381;28;20088;-85
2023/01/20 05:49:53;;;;;;;36.30;17.25;;;;;;;;;;5049332;28;20028;-84
2023/01/20 05:52:19;;;;;;;31.60;17.20;;;;;;;;;;5032591;28;20072;-83
2023/01/20 05:54:44;;;;;;;34.78;17.65;;;;;;;;;;5033616;28;20029;-83
2023/01/20 05:57:09;;;;;;;34.85;17.52;;;;;;;;;;5033928;28;20069;-84
2023/01/20 05:59:35;;;;;;;32.65;17.63;;;;;;;;;;5049078;28;20095;-84
2023/01/20 06:02:00;;;;;;;33.50;17.60;;;;;;;;;;5033342;28;20048;-85
2023/01/20 06:04:26;;;;;;;35.20;17.92;;;;;;;;;;5055491;28;20033;-84
2023/01/20 06:06:51;;;;;;;35.40;18.33;;;;;;;;;;5037674;28;20048;-85
2023/01/20 06:09:17;;;;;;;30.90;17.33;;;;;;;;;;5033780;28;20037;-85
2023/01/20 06:11:42;;;;;;;34.20;17.95;;;;;;;;;;5033445;28;20123;-84
2023/01/20 06:14:08;;;;;;;31.77;17.15;;;;;;;;;;5033494;28;20053;-84
2023/01/20 06:16:33;;;;;;;36.22;17.23;;;;;;;;;;5038374;28;20041;-84
2023/01/20 06:18:59;;;;;;;36.45;18.13;;;;;;;;;;5038042;28;20029;-86
2023/01/20 06:21:24;;;;;;;32.53;17.67;;;;;;;;;;5042481;28;20095;-84
2023/01/20 06:23:50;;;;;;;34.72;17.60;;;;;;;;;;5033629;28;20079;-84
2023/01/20 06:26:15;;;;;;;31.50;17.23;;;;;;;;;;5033114;28;20487;-83
2023/01/20 06:28:41;;;;;;;35.53;17.92;;;;;;;;;;5033294;28;20511;-85
2023/01/20 06:31:07;;;;;;;33.58;18.17;;;;;;;;;;5031278;28;20036;-84
2023/01/20 06:33:33;;;;;;;36.40;18.75;;;;;;;;;;5032114;28;20036;-85
2023/01/20 06:35:58;;;;;;;32.47;16.90;;;;;;;;;;5033492;28;20117;-85
2023/01/20 06:38:24;;;;;;;35.33;18.52;;;;;;;;;;5031802;28;20021;-85
2023/01/20 06:40:49;;;;;;;32.55;17.50;;;;;;;;;;5033384;28;20037;-85
2023/01/20 06:43:15;;;;;;;34.25;17.00;;;;;;;;;;5033325;28;20044;-83
2023/01/20 06:45:40;;;;;;;33.67;17.17;;;;;;;;;;5033232;28;20116;-85
2023/01/20 06:48:06;;;;;;;34.05;19.10;;;;;;;;;;5032628;28;20034;-85
2023/01/20 06:50:31;;;;;;;34.67;17.40;;;;;;;;;;5032167;28;20094;-85
2023/01/20 06:52:57;;;;;;;34.88;17.42;;;;;;;;;;5038174;28;20029;-85
2023/01/20 06:55:23;;;;;;;35.25;18.08;;;;;;;;;;5040811;28;20174;-85
2023/01/20 06:57:48;;;;;;;32.38;18.10;;;;;;;;;;5032593;28;20507;-84
2023/01/20 07:00:14;;;;;;;32.58;17.27;;;;;;;;;;5031703;28;20041;-84
2023/01/20 07:02:39;;;;;;;37.05;19.95;;;;;;;;;;5032543;28;20488;-84
2023/01/20 07:05:07;;;;;;;33.05;18.63;;;;;;;;;;5031171;28;20044;-85
2023/01/20 07:07:33;;;;;;;34.28;18.00;;;;;;;;;;5032231;28;20041;-85
2023/01/20 07:09:59;;;;;;;33.88;18.27;;;;;;;;;;5033284;28;20044;-85
2023/01/20 07:12:24;;;;;;;31.80;17.50;;;;;;;;;;5031798;28;20049;-85
2023/01/20 07:14:50;;;;;;;37.17;18.08;;;;;;;;;;5032360;28;20087;-84
2023/01/20 07:17:15;;;;;;;34.42;17.40;;;;;;;;;;5033236;28;20029;-86
2023/01/20 07:19:41;;;;;;;34.65;18.05;;;;;;;;;;5033095;28;20119;-83
2023/01/20 07:22:06;;;;;;;33.28;17.95;;;;;;;;;;5030176;28;20026;-84
2023/01/20 07:24:32;;;;;;;35.72;19.13;;;;;;;;;;5032170;28;20065;-85
2023/01/20 07:26:57;;;;;;;34.72;18.23;;;;;;;;;;5043194;28;20041;-84
2023/01/20 07:29:23;;;;;;;37.85;18.08;;;;;;;;;;5032327;28;20436;-85
2023/01/20 07:31:48;;;;;;;35.92;18.25;;;;;;;;;;5032283;28;20536;-86
2023/01/20 07:34:14;;;;;;;35.83;18.50;;;;;;;;;;5033638;28;20048;-84
2023/01/20 07:36:39;;;;;;;36.78;18.75;;;;;;;;;;5032834;28;20369;-86
2023/01/20 07:39:05;;;;;;;35.72;17.88;;;;;;;;;;5032149;28;20038;-84
2023/01/20 07:41:30;;;;;;;37.70;19.25;;;;;;;;;;5031904;28;20040;-83
2023/01/20 07:43:56;;;;;;;36.10;18.55;;;;;;;;;;5032308;28;20056;-83
2023/01/20 07:46:21;;;;;;;35.53;19.05;;;;;;;;;;5043201;28;20433;-85
2023/01/20 07:48:47;;;;;;;36.47;18.98;;;;;;;;;;5032147;28;20033;-85
2023/01/20 07:51:13;;;;;;;36.22;19.48;;;;;;;;;;5039388;28;20037;-85
2023/01/20 07:53:48;;;;;;;34.42;19.08;;;;;;;;;;5030984;28;20037;-85
2023/01/20 07:56:23;;;;;;;33.35;17.77;;;;;;;;;;5031900;28;20040;-85
2023/01/20 07:58:49;;;;;;;40.05;18.65;;;;;;;;;;5006015;28;20040;-87
2023/01/20 08:01:15;;;;;;;36.97;18.90;;;;;;;;;;5031288;28;20044;-85
2023/01/20 08:03:41;;;;;;;31.75;17.88;;;;;;;;;;5022757;28;20139;-85
2023/01/20 08:06:08;;;;;;;34.33;18.95;;;;;;;;;;5030972;28;20400;-85
2023/01/20 08:08:33;;;;;;;34.03;18.80;;;;;;;;;;5032098;28;20445;-85
2023/01/20 08:11:00;;;;;;;33.88;18.55;;;;;;;;;;5047346;28;20021;-85
2023/01/20 08:13:26;;;;;;;37.10;18.90;;;;;;;;;;5030680;28;20049;-86
2023/01/20 08:15:51;;;;;;;34.30;18.50;;;;;;;;;;5031887;28;20029;-84
2023/01/20 08:18:17;;;;;;;32.58;18.15;;;;;;;;;;5031834;28;20040;-85
2023/01/20 08:20:42;;;;;;;39.13;18.00;;;;;;;;;;5031980;28;20029;-86
2023/01/20 08:23:07;;;;;;;34.80;18.17;;;;;;;;;;5032417;28;20411;-85
2023/01/20 08:25:33;;;;;;;33.53;17.67;;;;;;;;;;5043138;28;20517;-85
2023/01/20 08:27:58;;;;;;;32.22;17.83;;;;;;;;;;5032409;28;20041;-86
2023/01/20 08:30:24;;;;;;;34.15;17.25;;;;;;;;;;5031053;28;20087;-86
2023/01/20 08:32:49;;;;;;;34.90;17.80;;;;;;;;;;5042982;28;20087;-85
2023/01/20 08:35:15;;;;;;;29.85;16.70;;;;;;;;;;5031665;28;20080;-85
2023/01/20 08:37:40;;;;;;;34.72;18.20;;;;;;;;;;5031763;28;20041;-85
2023/01/20 08:40:07;;;;;;;35.50;16.60;;;;;;;;;;5010501;28;20056;-87
2023/01/20 08:42:33;;;;;;;33.92;18.00;;;;;;;;;;5024324;28;20056;-87
2023/01/20 08:44:59;;;;;;;34.60;18.38;;;;;;;;;;5044465;28;20026;-85
2023/01/20 08:47:24;;;;;;;32.10;17.95;;;;;;;;;;5047103;28;20129;-86
2023/01/20 08:49:51;;;;;;;31.30;16.70;;;;;;;;;;5030888;28;20030;-85
2023/01/20 08:52:16;;;;;;;31.95;16.90;;;;;;;;;;5039473;28;20043;-84
2023/01/20 08:54:42;;;;;;;33.45;18.02;;;;;;;;;;5038854;28;20033;-85
2023/01/20 08:57:07;;;;;;;33.10;17.35;;;;;;;;;;5031544;28;20428;-86
2023/01/20 08:59:33;;;;;;;33.85;16.85;;;;;;;;;;5024727;28;20029;-85
2023/01/20 09:01:58;;;;;;;32.83;16.77;;;;;;;;;;5031915;28;20037;-86
2023/01/20 09:04:24;;;;;;;34.72;17.25;;;;;;;;;;5034652;28;20029;-85
2023/01/20 09:06:49;;;;;;;35.08;18.23;;;;;;;;;;5040973;28;20151;-85
2023/01/20 09:09:15;;;;;;;30.33;16.38;;;;;;;;;;5034018;28;20037;-85
2023/01/20 09:11:43;;;;;;;33.40;17.30;;;;;;;;;;5034792;28;20376;-85
2023/01/20 09:14:09;;;;;;;33.45;17.88;;;;;;;;;;5031967;28;20107;-84
2023/01/20 09:16:34;;;;;;;33.13;18.02;;;;;;;;;;5050243;28;20030;-86
2023/01/20 09:19:00;;;;;;;29.02;15.88;;;;;;;;;;5035010;28;20412;-85
2023/01/20 09:21:25;;;;;;;34.92;16.15;;;;;;;;;;5025223;28;20069;-84
2023/01/20 09:23:51;;;;;;;29.88;15.80;;;;;;;;;;5035791;28;20407;-85
2023/01/20 09:26:16;;;;;;;30.00;16.23;;;;;;;;;;5035018;28;20033;-85
2023/01/20 09:28:45;;;;;;;29.27;15.85;;;;;;;;;;5035708;28;20037;-85
2023/01/20 09:31:12;;;;;;;29.20;16.08;;;;;;;;;;5034793;28;20041;-85
2023/01/20 09:33:38;;;;;;;29.92;16.63;;;;;;;;;;5034305;28;20025;-85
2023/01/20 09:36:04;;;;;;;31.85;16.48;;;;;;;;;;5034880;28;20041;-85
2023/01/20 09:44:10;;;;;;;28.65;15.95;;;;;;;;;;5028961;28;20029;-85
2023/01/20 09:47:18;;;;;;;32.83;16.85;;;;;;;;;;5024965;28;20014;-85
2023/01/20 09:55:16;;;;;;;29.75;15.82;;;;;;;;;;5031326;28;20037;-85
2023/01/20 09:57:41;;;;;;;27.10;14.77;;;;;;;;;;5033467;28;20033;-84
2023/01/20 10:00:08;;;;;;;27.73;15.70;;;;;;;;;;5032782;28;20052;-85
2023/01/20 10:02:34;;;;;;;27.33;15.73;;;;;;;;;;5033003;28;20051;-85
2023/01/20 10:05:19;;;;;;;26.50;15.43;;;;;;;;;;5033179;28;20559;-86
2023/01/20 10:07:46;;;;;;;31.50;16.08;;;;;;;;;;5032151;28;20049;-84
2023/01/20 10:10:14;;;;;;;30.08;15.52;;;;;;;;;;5016374;28;20189;-85
2023/01/20 10:13:06;;;;;;;28.60;15.10;;;;;;;;;;5033578;28;20487;-85
2023/01/20 10:15:33;;;;;;;25.70;15.15;;;;;;;;;;5032009;28;20037;-85
2023/01/20 10:18:17;;;;;;;27.67;15.07;;;;;;;;;;5033621;28;20436;-85
2023/01/20 10:20:44;;;;;;;27.30;14.30;;;;;;;;;;5027930;28;20041;-85
2023/01/20 10:23:10;;;;;;;26.15;15.70;;;;;;;;;;5034310;28;20068;-85
2023/01/20 10:25:35;;;;;;;;;;;;;;;;;;5033331;28;20034;-85
2023/01/20 10:28:03;;;;;;;30.20;15.32;;;;;;;;;;5039284;28;19919;-85
2023/01/20 10:30:30;;;;;;;25.35;15.30;;;;;;;;;;5031772;28;20033;-85
2023/01/20 10:33:11;;;;;;;27.38;14.55;;;;;;;;;;5044225;28;20024;-85
2023/01/20 10:35:56;;;;;;;27.85;14.73;;;;;;;;;;5024501;28;20507;-85
2023/01/20 10:38:27;;;;;;;27.75;15.50;;;;;;;;;;5043349;28;20546;-85
2023/01/20 10:40:54;;;;;;;26.92;14.82;;;;;;;;;;5034635;28;20384;-85
2023/01/20 10:43:20;;;;;;;29.60;15.60;;;;;;;;;;5041844;28;20147;-86
2023/01/20 10:45:54;;;;;;;28.33;14.65;;;;;;;;;;5022958;28;20080;-86
2023/01/20 10:48:29;;;;;;;27.08;14.35;;;;;;;;;;5029476;28;20033;-85
2023/01/20 10:50:57;;;;;;;26.63;13.98;;;;;;;;;;5033136;28;20045;-86
2023/01/20 10:53:30;;;;;;;27.50;15.18;;;;;;;;;;5032171;28;20033;-86
2023/01/20 10:56:01;;;;;;;25.38;14.07;;;;;;;;;;5033403;28;20033;-85
2023/01/20 10:58:27;;;;;;;29.42;15.45;;;;;;;;;;5035103;28;20039;-85
2023/01/20 11:00:53;;;;;;;28.23;13.55;;;;;;;;;;5033972;28;20075;-84
2023/01/20 11:03:19;;;;;;;23.75;13.48;;;;;;;;;;5032199;28;20482;-85
2023/01/20 11:05:45;;;;;;;24.80;14.07;;;;;;;;;;5037734;28;20032;-85
2023/01/20 11:08:18;;;;;;;25.70;14.50;;;;;;;;;;5035101;28;20037;-84
2023/01/20 11:10:44;;;;;;;26.58;14.30;;;;;;;;;;5032876;28;20191;-84
2023/01/20 11:13:09;;;;;;;22.75;13.50;;;;;;;;;;5031519;28;20069;-84
2023/01/20 11:15:36;;;;;;;23.23;13.93;;;;;;;;;;5031521;28;20036;-84
2023/01/20 11:18:13;;;;;;;23.50;14.00;;;;;;;;;;5033066;28;20039;-86
2023/01/20 11:20:45;;;;;;;24.33;14.15;;;;;;;;;;5024469;28;20034;-86
2023/01/20 11:23:31;;;;;;;25.60;13.52;;;;;;;;;;5032777;28;20103;-86
2023/01/20 11:25:57;;;;;;;23.58;13.80;;;;;;;;;;5036711;28;20497;-85
2023/01/20 11:28:22;;;;;;;26.95;14.25;;;;;;;;;;5033342;28;20075;-84
2023/01/20 11:30:51;;;;;;;25.83;13.73;;;;;;;;;;5031308;28;20045;-85
2023/01/20 11:33:21;;;;;;;25.63;13.68;;;;;;;;;;5035630;28;20056;-84
2023/01/20 11:35:57;;;;;;;21.17;13.32;;;;;;;;;;5041648;28;20032;-84
2023/01/20 11:38:23;;;;;;;24.05;13.77;;;;;;;;;;5016056;28;20065;-86
2023/01/20 11:40:52;;;;;;;24.08;13.77;;;;;;;;;;5011804;28;20088;-86
2023/01/20 11:43:33;;;;;;;26.05;14.27;;;;;;;;;;5041355;28;20041;-85
2023/01/20 11:46:12;;;;;;;26.83;13.95;;;;;;;;;;5032172;28;20034;-85
2023/01/20 11:48:37;;;;;;;25.15;13.07;;;;;;;;;;5032409;28;20385;-86
2023/01/20 11:51:03;;;;;;;23.02;13.50;;;;;;;;;;5030925;28;20036;-85
2023/01/20 11:53:32;;;;;;;21.92;13.57;;;;;;;;;;5037659;28;20033;-86
2023/01/20 11:56:02;;;;;;;25.63;14.15;;;;;;;;;;5040599;28;20024;-85
2023/01/20 11:58:31;;;;;;;25.38;13.57;;;;;;;;;;5030868;28;20060;-87
2023/01/20 12:01:00;;;;;;;23.10;13.63;;;;;;;;;;5039290;28;20492;-86
2023/01/20 12:03:29;;;;;;;21.50;12.93;;;;;;;;;;5032389;28;20041;-85
2023/01/20 12:05:59;;;;;;;26.52;14.55;;;;;;;;;;5032875;28;20504;-85
2023/01/20 12:08:28;;;;;;;21.35;13.27;;;;;;;;;;5026555;28;20095;-84
2023/01/20 12:10:55;;;;;;;24.85;13.45;;;;;;;;;;5026340;28;20036;-84
2023/01/20 12:13:25;;;;;;;24.75;13.43;;;;;;;;;;5015195;28;20085;-86
2023/01/20 12:15:53;;;;;;;25.65;13.88;;;;;;;;;;5027413;28;20116;-86
2023/01/20 12:18:37;;;;;;;26.35;13.77;;;;;;;;;;5022385;28;20041;-84
2023/01/20 12:21:09;;;;;;;24.40;14.48;;;;;;;;;;5031017;28;20053;-86
2023/01/20 12:23:44;;;;;;;24.58;13.85;;;;;;;;;;5033508;28;20115;-86
2023/01/20 12:26:10;;;;;;;27.48;14.43;;;;;;;;;;5037023;28;20045;-84
2023/01/20 12:28:38;;;;;;;24.85;13.65;;;;;;;;;;5036058;28;20447;-84
2023/01/20 12:31:04;;;;;;;23.45;13.45;;;;;;;;;;5035806;28;20037;-85
2023/01/20 12:33:30;;;;;;;25.48;14.43;;;;;;;;;;5033461;28;20037;-85
2023/01/20 12:36:15;;;;;;;21.52;13.40;;;;;;;;;;5033260;28;20033;-85
2023/01/20 12:38:44;;;;;;;27.83;14.00;;;;;;;;;;5044928;28;20037;-85
2023/01/20 12:41:12;;;;;;;25.75;12.85;;;;;;;;;;5043732;28;20041;-86
2023/01/20 12:43:47;;;;;;;27.45;14.98;;;;;;;;;;5031866;28;20110;-87
2023/01/20 12:46:16;;;;;;;27.80;14.65;;;;;;;;;;5039685;28;20048;-86
2023/01/20 12:48:41;;;;;;;24.65;14.98;;;;;;;;;;5037700;28;20030;-85
2023/01/20 12:51:19;;;;;;;27.92;14.00;;;;;;;;;;5036417;28;20096;-85
2023/01/20 12:53:53;;;;;;;27.27;14.00;;;;;;;;;;5034651;28;20036;-84
2023/01/20 12:56:31;;;;;;;28.55;14.68;;;;;;;;;;5026323;28;20221;-85
2023/01/20 12:58:59;;;;;;;24.88;14.65;;;;;;;;;;5033495;28;20082;-85
2023/01/20 13:01:25;;;;;;;22.10;13.50;;;;;;;;;;5057058;28;20051;-85
2023/01/20 13:03:50;;;;;;;29.02;13.73;;;;;;;;;;5036718;28;20029;-85
2023/01/20 13:06:16;;;;;;;24.42;13.68;;;;;;;;;;5035326;28;20063;-85
2023/01/20 13:08:41;;;;;;;23.35;13.82;;;;;;;;;;5036022;28;20029;-85
2023/01/20 13:11:25;;;;;;;27.63;14.52;;;;;;;;;;5038127;28;20043;-85
2023/01/20 13:14:10;;;;;;;27.15;14.65;;;;;;;;;;5023137;28;20504;-86
2023/01/20 13:16:39;;;;;;;23.73;13.23;;;;;;;;;;5033971;28;20029;-85
2023/01/20 13:19:15;;;;;;;25.40;13.38;;;;;;;;;;5034817;28;20025;-84
2023/01/20 13:21:41;;;;;;;22.03;13.30;;;;;;;;;;5037433;28;20090;-84
2023/01/20 13:24:14;;;;;;;25.10;13.57;;;;;;;;;;5043091;28;20029;-84
2023/01/20 13:26:40;;;;;;;25.23;13.35;;;;;;;;;;5034700;28;20040;-85
2023/01/20 13:29:08;;;;;;;25.88;13.77;;;;;;;;;;5035441;28;20033;-85
2023/01/20 13:31:36;;;;;;;24.13;13.70;;;;;;;;;;5017804;28;20033;-84
2023/01/20 13:34:20;;;;;;;27.00;13.77;;;;;;;;;;5033887;28;20215;-85
2023/01/20 13:36:58;;;;;;;25.35;13.63;;;;;;;;;;5035729;28;20476;-85
2023/01/20 13:39:32;;;;;;;24.48;12.88;;;;;;;;;;5047752;28;20033;-85
2023/01/20 13:41:57;;;;;;;24.10;13.25;;;;;;;;;;5035760;28;20037;-84
2023/01/20 13:44:35;;;;;;;25.70;13.82;;;;;;;;;;5033746;28;20041;-85
2023/01/20 13:47:01;;;;;;;26.27;13.30;;;;;;;;;;5025987;28;20044;-85
2023/01/20 13:49:28;;;;;;;31.38;14.45;;;;;;;;;;5032988;28;20025;-85
2023/01/20 13:51:53;;;;;;;24.02;13.38;;;;;;;;;;5035918;28;20095;-85
2023/01/20 13:54:23;;;;;;;27.65;13.25;;;;;;;;;;5035668;28;20030;-85
2023/01/20 13:56:49;;;;;;;26.25;13.88;;;;;;;;;;5035245;28;20037;-85
2023/01/20 13:59:14;;;;;;;25.05;13.73;;;;;;;;;;5033524;28;20048;-85
2023/01/20 14:01:40;;;;;;;25.80;13.20;;;;;;;;;;5035250;28;20120;-85
2023/01/20 14:04:06;;;;;;;25.10;14.00;;;;;;;;;;5034275;28;20037;-84
2023/01/20 14:06:34;;;;;;;27.90;13.85;;;;;;;;;;5033312;28;20515;-85
2023/01/20 14:09:02;;;;;;;25.42;13.63;;;;;;;;;;5030692;28;20017;-85
2023/01/20 14:11:29;;;;;;;25.85;13.45;;;;;;;;;;5031249;28;20124;-85
2023/01/20 14:13:58;;;;;;;27.17;14.48;;;;;;;;;;5020069;28;20057;-85
2023/01/20 14:16:27;;;;;;;23.33;13.90;;;;;;;;;;5036039;28;20034;-85
2023/01/20 14:18:53;;;;;;;25.02;14.32;;;;;;;;;;5033202;28;20029;-85
2023/01/20 14:21:20;;;;;;;24.08;13.57;;;;;;;;;;5033018;28;20041;-85
2023/01/20 14:23:46;;;;;;;25.20;14.07;;;;;;;;;;5012733;28;20416;-84
2023/01/20 14:26:12;;;;;;;28.98;14.30;;;;;;;;;;5039108;28;20037;-85
2023/01/20 14:28:45;;;;;;;29.55;16.08;;;;;;;;;;5032076;28;20026;-85
2023/01/20 14:31:17;;;;;;;24.20;14.00;;;;;;;;;;5031539;28;20037;-85
2023/01/20 14:33:44;;;;;;;23.40;13.25;;;;;;;;;;5043928;28;20037;-85